Time,TemperatureF,DewpointF,PressureIn,WindDirection,WindDirectionDegrees,WindSpeedMPH,WindSpeedGustMPH,Humidity,HourlyPrecipIn,Conditions,Clouds,dailyrainin,SolarRadiationWatts/m^2,SoftwareType,DateUTC
2013-04-26 00:01:00,45.3,32.7,30.31,West,275,1.0,2.0,61,0.00,,,0.00,0,WeatherCatV1.15B25,2013-04-26 04:01:00,
2013-04-26 00:06:00,44.9,32.7,30.31,West,275,0.0,3.0,62,0.00,,,0.00,0,WeatherCatV1.15B25,2013-04-26 04:06:00,
2013-04-26 00:11:00,44.6,31.6,30.31,West,275,0.0,1.0,60,0.00,,,0.00,0,WeatherCatV1.15B25,2013-04-26 04:11:00,
2013-04-26 00:16:00,44.3,30.9,30.31,SSW,207,0.0,1.0,59,0.00,,,0.00,0,WeatherCatV1.15B25,2013-04-26 04:16:00,
2013-04-26 00:21:00,44.4,31.8,30.31,WSW,250,0.0,0.0,61,0.00,,,0.00,0,WeatherCatV1.15B25,2013-04-26 04:21:00,
2013-04-26 00:26:00,44.2,32.0,30.31,SW,233,0.0,0.0,62,0.00,,,0.00,0,WeatherCatV1.15B25,2013-04-26 04:26:00,
2013-04-26 00:31:00,43.8,32.0,30.31,SW,233,0.0,0.0,63,0.00,,,0.00,0,WeatherCatV1.15B25,2013-04-26 04:31:00,
2013-04-26 00:36:00,43.5,32.1,30.31,WNW,285,0.0,0.0,64,0.00,,,0.00,0,WeatherCatV1.15B25,2013-04-26 04:36:00,
2013-04-26 00:41:00,43.1,31.8,30.31,WNW,285,0.0,1.0,64,0.00,,,0.00,0,WeatherCatV1.15B25,2013-04-26 04:41:00,
2013-04-26 00:46:00,42.6,32.0,30.31,WNW,285,0.0,1.0,66,0.00,,,0.00,0,WeatherCatV1.15B25,2013-04-26 04:46:00,
2013-04-26 00:51:00,42.2,32.4,30.31,WNW,285,0.0,2.0,68,0.00,,,0.00,0,WeatherCatV1.15B25,2013-04-26 04:51:00,
2013-04-26 00:56:00,41.7,31.6,30.31,WNW,285,0.0,2.0,67,0.00,,,0.00,0,WeatherCatV1.15B25,2013-04-26 04:56:00,
2013-04-26 01:01:00,41.4,31.3,30.31,WNW,285,0.0,0.0,67,0.00,,,0.00,0,WeatherCatV1.15B25,2013-04-26 05:01:00,
2013-04-26 01:06:00,41.2,31.5,30.31,WNW,285,0.0,0.0,68,0.00,,,0.00,0,WeatherCatV1.15B25,2013-04-26 05:06:00,
2013-04-26 01:11:00,41.0,31.6,30.31,WNW,285,0.0,0.0,69,0.00,,,0.00,0,WeatherCatV1.15B25,2013-04-26 05:11:00,
2013-04-26 01:14:00,40.9,31.5,30.31,WNW,285,0.0,0.0,69,0.00,,,0.00,0,WeatherCatV1.15B25,2013-04-26 05:14:00,
2013-04-26 01:19:00,40.8,31.4,30.31,WNW,285,0.0,0.0,69,0.00,,,0.00,0,WeatherCatV1.15B25,2013-04-26 05:19:00,
2013-04-26 01:24:00,40.7,31.7,30.31,WNW,285,1.0,1.0,70,0.00,,,0.00,0,WeatherCatV1.15B25,2013-04-26 05:24:00,
2013-04-26 01:29:00,40.4,31.8,30.31,WNW,285,0.0,0.0,71,0.00,,,0.00,0,WeatherCatV1.15B25,2013-04-26 05:29:00,
2013-04-26 01:33:00,40.1,31.8,30.32,WNW,285,0.0,2.0,72,0.00,,,0.00,0,WeatherCatV1.15B25,2013-04-26 05:33:00,
2013-04-26 01:39:00,39.7,31.8,30.32,WNW,285,1.0,1.0,73,0.00,,,0.00,0,WeatherCatV1.15B25,2013-04-26 05:39:00,
2013-04-26 01:44:00,39.5,31.6,30.32,WNW,285,1.0,2.0,73,0.00,,,0.00,0,WeatherCatV1.15B25,2013-04-26 05:44:00,
2013-04-26 01:49:00,39.2,31.6,30.32,WNW,285,0.0,1.0,74,0.00,,,0.00,0,WeatherCatV1.15B25,2013-04-26 05:49:00,
2013-04-26 01:54:00,39.1,31.5,30.32,WNW,285,0.0,1.0,74,0.00,,,0.00,0,WeatherCatV1.15B25,2013-04-26 05:54:00,
2013-04-26 01:59:00,39.1,31.5,30.32,WNW,289,0.0,0.0,74,0.00,,,0.00,0,WeatherCatV1.15B25,2013-04-26 05:59:00,
2013-04-26 02:03:00,39.1,31.5,30.32,North,7,3.0,3.0,74,0.00,,,0.00,0,WeatherCatV1.15B25,2013-04-26 06:03:00,
2013-04-26 02:08:00,38.7,31.1,30.32,NNE,17,0.0,0.0,74,0.00,,,0.00,0,WeatherCatV1.15B25,2013-04-26 06:08:00,
2013-04-26 02:13:00,38.5,31.6,30.32,NNE,17,0.0,1.0,76,0.00,,,0.00,0,WeatherCatV1.15B25,2013-04-26 06:13:00,
2013-04-26 02:18:00,38.5,32.2,30.32,NNE,17,0.0,0.0,78,0.00,,,0.00,0,WeatherCatV1.15B25,2013-04-26 06:18:00,
2013-04-26 02:23:00,38.4,31.8,30.33,NNE,17,0.0,0.0,77,0.00,,,0.00,0,WeatherCatV1.15B25,2013-04-26 06:23:00,
2013-04-26 02:28:00,38.2,31.6,30.33,NNE,17,0.0,1.0,77,0.00,,,0.00,0,WeatherCatV1.15B25,2013-04-26 06:28:00,
2013-04-26 02:33:00,38.0,31.8,30.33,NNE,17,0.0,0.0,78,0.00,,,0.00,0,WeatherCatV1.15B25,2013-04-26 06:33:00,
2013-04-26 02:38:00,37.8,31.9,30.33,NNE,17,0.0,0.0,79,0.00,,,0.00,0,WeatherCatV1.15B25,2013-04-26 06:38:00,
2013-04-26 02:43:00,37.7,32.4,30.33,NNE,17,0.0,0.0,81,0.00,,,0.00,0,WeatherCatV1.15B25,2013-04-26 06:43:00,
2013-04-26 02:48:00,37.5,31.9,30.33,NNE,17,0.0,0.0,80,0.00,,,0.00,0,WeatherCatV1.15B25,2013-04-26 06:48:00,
2013-04-26 02:53:00,37.3,31.7,30.33,NNE,17,0.0,0.0,80,0.00,,,0.00,0,WeatherCatV1.15B25,2013-04-26 06:53:00,
2013-04-26 02:58:00,37.1,31.5,30.33,NNE,17,0.0,1.0,80,0.00,,,0.00,0,WeatherCatV1.15B25,2013-04-26 06:58:00,
2013-04-26 03:03:00,37.0,31.7,30.33,NNW,327,1.0,2.0,81,0.00,,,0.00,0,WeatherCatV1.15B25,2013-04-26 07:03:00,
2013-04-26 03:08:00,37.0,31.7,30.34,NW,308,3.0,3.0,81,0.00,,,0.00,0,WeatherCatV1.15B25,2013-04-26 07:08:00,
2013-04-26 03:13:00,38.4,33.4,30.34,NNW,334,0.0,3.0,82,0.00,,,0.00,0,WeatherCatV1.15B25,2013-04-26 07:13:00,
2013-04-26 03:18:00,40.1,34.4,30.34,East,92,2.0,2.0,80,0.00,,,0.00,0,WeatherCatV1.15B25,2013-04-26 07:18:00,
2013-04-26 03:23:00,39.4,33.4,30.34,SE,138,2.0,5.0,79,0.00,,,0.00,0,WeatherCatV1.15B25,2013-04-26 07:23:00,
2013-04-26 03:28:00,38.5,33.5,30.34,ENE,62,2.0,5.0,82,0.00,,,0.00,0,WeatherCatV1.15B25,2013-04-26 07:28:00,
2013-04-26 03:33:00,39.1,34.7,30.35,NE,49,3.0,8.0,84,0.00,,,0.00,0,WeatherCatV1.15B25,2013-04-26 07:33:00,
2013-04-26 03:38:00,40.7,35.3,30.35,NE,47,1.0,4.0,81,0.00,,,0.00,0,WeatherCatV1.15B25,2013-04-26 07:38:00,
2013-04-26 03:43:00,41.3,35.3,30.35,NE,50,1.0,1.0,79,0.00,,,0.00,0,WeatherCatV1.15B25,2013-04-26 07:43:00,
2013-04-26 03:48:00,41.0,35.0,30.35,East,100,1.0,5.0,79,0.00,,,0.00,0,WeatherCatV1.15B25,2013-04-26 07:48:00,
2013-04-26 03:53:00,40.7,34.4,30.35,NE,47,0.0,0.0,78,0.00,,,0.00,0,WeatherCatV1.15B25,2013-04-26 07:53:00,
2013-04-26 03:59:00,40.1,34.4,30.35,WNW,293,0.0,0.0,80,0.00,,,0.00,0,WeatherCatV1.15B25,2013-04-26 07:59:00,
2013-04-26 04:04:00,40.2,34.5,30.35,NNE,21,1.0,2.0,80,0.00,,,0.00,0,WeatherCatV1.15B25,2013-04-26 08:04:00,
2013-04-26 04:09:00,40.7,35.3,30.36,NE,40,2.0,3.0,81,0.00,,,0.00,0,WeatherCatV1.15B25,2013-04-26 08:09:00,
2013-04-26 04:14:00,41.4,35.7,30.36,NW,312,2.0,4.0,80,0.00,,,0.00,0,WeatherCatV1.15B25,2013-04-26 08:14:00,
2013-04-26 04:19:00,41.2,34.9,30.36,NW,314,0.0,0.0,78,0.00,,,0.00,0,WeatherCatV1.15B25,2013-04-26 08:19:00,
2013-04-26 04:24:00,40.8,34.8,30.37,NW,318,1.0,2.0,79,0.00,,,0.00,0,WeatherCatV1.15B25,2013-04-26 08:24:00,
2013-04-26 04:29:00,40.4,34.4,30.37,WNW,296,3.0,3.0,79,0.00,,,0.00,0,WeatherCatV1.15B25,2013-04-26 08:29:00,
2013-04-26 04:34:00,39.8,33.8,30.37,WNW,283,1.0,3.0,79,0.00,,,0.00,0,WeatherCatV1.15B25,2013-04-26 08:34:00,
2013-04-26 04:39:00,39.2,33.6,30.37,WNW,284,0.0,0.0,80,0.00,,,0.00,0,WeatherCatV1.15B25,2013-04-26 08:39:00,
2013-04-26 04:44:00,38.8,33.8,30.37,East,97,2.0,2.0,82,0.00,,,0.00,0,WeatherCatV1.15B25,2013-04-26 08:44:00,
2013-04-26 04:49:00,38.5,33.5,30.37,East,93,0.0,1.0,82,0.00,,,0.00,0,WeatherCatV1.15B25,2013-04-26 08:49:00,
2013-04-26 04:54:00,38.3,33.3,30.37,East,93,0.0,2.0,82,0.00,,,0.00,0,WeatherCatV1.15B25,2013-04-26 08:54:00,
2013-04-26 04:59:00,38.1,33.4,30.38,East,100,0.0,1.0,83,0.00,,,0.00,0,WeatherCatV1.15B25,2013-04-26 08:59:00,
2013-04-26 05:00:00,38.1,33.4,30.38,East,100,1.0,1.0,83,0.00,,,0.00,0,WeatherCatV1.15B25,2013-04-26 09:00:00,
2013-04-26 05:05:00,38.1,33.4,30.38,West,264,0.0,1.0,83,0.00,,,0.00,0,WeatherCatV1.15B25,2013-04-26 09:05:00,
2013-04-26 05:10:00,38.0,33.3,30.38,WNW,296,0.0,3.0,83,0.00,,,0.00,0,WeatherCatV1.15B25,2013-04-26 09:10:00,
2013-04-26 05:15:00,37.8,33.4,30.38,WNW,296,0.0,0.0,84,0.00,,,0.00,0,WeatherCatV1.15B25,2013-04-26 09:15:00,
2013-04-26 05:20:00,37.7,33.3,30.38,WNW,296,0.0,2.0,84,0.00,,,0.00,0,WeatherCatV1.15B25,2013-04-26 09:20:00,
2013-04-26 05:25:00,37.4,33.0,30.39,WNW,296,0.0,2.0,84,0.00,,,0.00,0,WeatherCatV1.15B25,2013-04-26 09:25:00,
2013-04-26 05:30:00,37.0,32.6,30.39,WNW,296,2.0,2.0,84,0.00,,,0.00,0,WeatherCatV1.15B25,2013-04-26 09:30:00,
2013-04-26 05:35:00,36.7,32.3,30.39,WNW,296,1.0,1.0,84,0.00,,,0.00,0,WeatherCatV1.15B25,2013-04-26 09:35:00,
2013-04-26 05:40:00,36.8,32.7,30.39,NNW,330,1.0,3.0,85,0.00,,,0.00,0,WeatherCatV1.15B25,2013-04-26 09:40:00,
2013-04-26 05:45:00,36.7,32.3,30.39,West,262,2.0,2.0,84,0.00,,,0.00,0,WeatherCatV1.15B25,2013-04-26 09:45:00,
2013-04-26 05:50:00,36.4,32.3,30.39,WNW,298,0.0,1.0,85,0.00,,,0.00,0,WeatherCatV1.15B25,2013-04-26 09:50:00,
2013-04-26 05:55:00,36.2,32.1,30.40,WNW,300,0.0,0.0,85,0.00,,,0.00,0,WeatherCatV1.15B25,2013-04-26 09:55:00,
2013-04-26 06:00:00,36.3,32.2,30.40,WNW,300,0.0,0.0,85,0.00,,,0.00,0,WeatherCatV1.15B25,2013-04-26 10:00:00,
2013-04-26 06:05:00,36.3,32.2,30.40,WSW,243,1.0,3.0,85,0.00,,,0.00,0,WeatherCatV1.15B25,2013-04-26 10:05:00,
2013-04-26 06:11:00,36.4,32.3,30.40,WSW,243,0.0,0.0,85,0.00,,,0.00,0,WeatherCatV1.15B25,2013-04-26 10:11:00,
2013-04-26 06:16:00,36.2,32.1,30.40,WNW,287,2.0,3.0,85,0.00,,,0.00,0,WeatherCatV1.15B25,2013-04-26 10:16:00,
2013-04-26 06:21:00,35.9,31.8,30.41,ESE,114,1.0,2.0,85,0.00,,,0.00,5,WeatherCatV1.15B25,2013-04-26 10:21:00,
2013-04-26 06:26:00,35.5,31.4,30.41,ESE,114,0.0,1.0,85,0.00,,,0.00,9,WeatherCatV1.15B25,2013-04-26 10:26:00,
2013-04-26 06:31:00,35.3,31.2,30.41,SE,138,0.0,1.0,85,0.00,,,0.00,12,WeatherCatV1.15B25,2013-04-26 10:31:00,
2013-04-26 06:36:00,35.2,31.4,30.41,WNW,291,2.0,3.0,86,0.00,,,0.00,18,WeatherCatV1.15B25,2013-04-26 10:36:00,
2013-04-26 06:41:00,35.1,31.3,30.42,WNW,292,1.0,2.0,86,0.00,,,0.00,23,WeatherCatV1.15B25,2013-04-26 10:41:00,
2013-04-26 06:46:00,35.1,31.3,30.42,WNW,293,0.0,0.0,86,0.00,,,0.00,28,WeatherCatV1.15B25,2013-04-26 10:46:00,
2013-04-26 06:51:00,35.3,31.5,30.42,WNW,293,1.0,2.0,86,0.00,,,0.00,37,WeatherCatV1.15B25,2013-04-26 10:51:00,
2013-04-26 06:56:00,35.4,31.6,30.42,WNW,295,0.0,1.0,86,0.00,,,0.00,46,WeatherCatV1.15B25,2013-04-26 10:56:00,
2013-04-26 07:01:00,35.7,31.9,30.43,WNW,295,0.0,1.0,86,0.00,,,0.00,60,WeatherCatV1.15B25,2013-04-26 11:01:00,
2013-04-26 07:06:00,36.0,32.2,30.43,WNW,295,0.0,1.0,86,0.00,,,0.00,77,WeatherCatV1.15B25,2013-04-26 11:06:00,
2013-04-26 07:11:00,36.2,32.4,30.44,WNW,295,0.0,0.0,86,0.00,,,0.00,84,WeatherCatV1.15B25,2013-04-26 11:11:00,
2013-04-26 07:16:00,36.6,32.8,30.44,WNW,295,0.0,0.0,86,0.00,,,0.00,104,WeatherCatV1.15B25,2013-04-26 11:16:00,
2013-04-26 07:22:00,37.1,33.3,30.44,WNW,295,0.0,0.0,86,0.00,,,0.00,123,WeatherCatV1.15B25,2013-04-26 11:22:00,
2013-04-26 07:27:00,37.9,34.1,30.44,WNW,294,2.0,2.0,86,0.00,,,0.00,141,WeatherCatV1.15B25,2013-04-26 11:27:00,
2013-04-26 07:32:00,38.2,34.1,30.45,WNW,296,0.0,0.0,85,0.00,,,0.00,160,WeatherCatV1.15B25,2013-04-26 11:32:00,
2013-04-26 07:37:00,38.7,34.6,30.45,WNW,296,0.0,1.0,85,0.00,,,0.00,174,WeatherCatV1.15B25,2013-04-26 11:37:00,
2013-04-26 07:42:00,39.3,34.9,30.45,WNW,296,0.0,1.0,84,0.00,,,0.00,190,WeatherCatV1.15B25,2013-04-26 11:42:00,
2013-04-26 07:47:00,40.1,36.0,30.45,WNW,296,0.0,0.0,85,0.00,,,0.00,211,WeatherCatV1.15B25,2013-04-26 11:47:00,
2013-04-26 07:52:00,41.3,36.8,30.45,WNW,296,0.0,0.0,84,0.00,,,0.00,230,WeatherCatV1.15B25,2013-04-26 11:52:00,
2013-04-26 07:57:00,42.2,36.8,30.45,WNW,296,0.0,1.0,81,0.00,,,0.00,248,WeatherCatV1.15B25,2013-04-26 11:57:00,
2013-04-26 08:02:00,42.8,37.1,30.46,WNW,296,0.0,0.0,80,0.00,,,0.00,269,WeatherCatV1.15B25,2013-04-26 12:02:00,
2013-04-26 08:07:00,43.6,37.2,30.45,WSW,248,1.0,1.0,78,0.00,,,0.00,287,WeatherCatV1.15B25,2013-04-26 12:07:00,
2013-04-26 08:11:00,44.4,37.6,30.45,WSW,248,0.0,1.0,77,0.00,,,0.00,299,WeatherCatV1.15B25,2013-04-26 12:11:00,
2013-04-26 08:16:00,45.6,38.8,30.46,ESE,118,1.0,2.0,77,0.00,,,0.00,318,WeatherCatV1.15B25,2013-04-26 12:16:00,
2013-04-26 08:21:00,46.8,38.6,30.46,ESE,119,2.0,2.0,73,0.00,,,0.00,338,WeatherCatV1.15B25,2013-04-26 12:21:00,
2013-04-26 08:26:00,47.6,38.3,30.46,ESE,107,2.0,2.0,70,0.00,,,0.00,357,WeatherCatV1.15B25,2013-04-26 12:26:00,
2013-04-26 08:31:00,48.1,38.0,30.46,ESE,116,3.0,3.0,68,0.00,,,0.00,376,WeatherCatV1.15B25,2013-04-26 12:31:00,
2013-04-26 08:36:00,48.7,37.9,30.46,East,101,3.0,5.0,66,0.00,,,0.00,394,WeatherCatV1.15B25,2013-04-26 12:36:00,
2013-04-26 08:41:00,49.0,38.1,30.46,SE,126,2.0,2.0,66,0.00,,,0.00,411,WeatherCatV1.15B25,2013-04-26 12:41:00,
2013-04-26 08:46:00,49.2,37.9,30.47,SE,126,3.0,4.0,65,0.00,,,0.00,427,WeatherCatV1.15B25,2013-04-26 12:46:00,
2013-04-26 08:51:00,49.6,37.5,30.47,NE,53,1.0,6.0,63,0.00,,,0.00,446,WeatherCatV1.15B25,2013-04-26 12:51:00,
2013-04-26 08:56:00,50.3,38.6,30.47,East,100,5.0,7.0,64,0.00,,,0.00,462,WeatherCatV1.15B25,2013-04-26 12:56:00,
2013-04-26 08:59:00,50.6,38.5,30.47,ESE,114,3.0,5.0,63,0.00,,,0.00,468,WeatherCatV1.15B25,2013-04-26 12:59:00,
2013-04-26 09:00:00,50.7,37.3,30.47,ESE,114,2.0,7.0,60,0.00,,,0.00,476,WeatherCatV1.15B25,2013-04-26 13:00:00,
2013-04-26 09:05:00,50.9,38.3,30.47,NNE,31,2.0,4.0,62,0.00,,,0.00,492,WeatherCatV1.15B25,2013-04-26 13:05:00,
2013-04-26 09:10:00,51.3,37.5,30.47,WSW,237,0.0,2.0,59,0.00,,,0.00,506,WeatherCatV1.15B25,2013-04-26 13:10:00,
2013-04-26 09:15:00,51.4,37.1,30.47,SSE,148,2.0,4.0,58,0.00,,,0.00,531,WeatherCatV1.15B25,2013-04-26 13:15:00,
2013-04-26 09:18:00,51.4,37.6,30.47,ESE,115,8.0,8.0,59,0.00,,,0.00,541,WeatherCatV1.15B25,2013-04-26 13:18:00,
2013-04-26 09:24:00,51.4,38.0,30.47,ESE,106,6.0,6.0,60,0.00,,,0.00,557,WeatherCatV1.15B25,2013-04-26 13:24:00,
2013-04-26 09:29:00,51.7,37.4,30.47,ENE,73,3.0,5.0,58,0.00,,,0.00,577,WeatherCatV1.15B25,2013-04-26 13:29:00,
2013-04-26 09:34:00,52.2,37.4,30.47,NE,35,0.0,4.0,57,0.00,,,0.00,584,WeatherCatV1.15B25,2013-04-26 13:34:00,
2013-04-26 09:39:00,52.6,38.2,30.47,SE,124,3.0,4.0,58,0.00,,,0.00,601,WeatherCatV1.15B25,2013-04-26 13:39:00,
2013-04-26 09:44:00,52.7,38.8,30.47,NNE,23,3.0,6.0,59,0.00,,,0.00,619,WeatherCatV1.15B25,2013-04-26 13:44:00,
2013-04-26 09:49:00,53.3,38.9,30.47,NNW,335,0.0,3.0,58,0.00,,,0.00,631,WeatherCatV1.15B25,2013-04-26 13:49:00,
2013-04-26 09:54:00,53.9,39.9,30.47,NE,38,3.0,6.0,59,0.00,,,0.00,647,WeatherCatV1.15B25,2013-04-26 13:54:00,
2013-04-26 09:59:00,53.8,37.1,30.47,North,7,1.0,5.0,53,0.00,,,0.00,670,WeatherCatV1.15B25,2013-04-26 13:59:00,
2013-04-26 10:04:00,54.1,37.8,30.47,East,93,5.0,6.0,54,0.00,,,0.00,684,WeatherCatV1.15B25,2013-04-26 14:04:00,
2013-04-26 10:07:00,54.0,36.8,30.47,NE,49,2.0,6.0,52,0.00,,,0.00,687,WeatherCatV1.15B25,2013-04-26 14:07:00,
2013-04-26 10:09:00,53.9,36.7,30.47,NNW,337,1.0,1.0,52,0.00,,,0.00,694,WeatherCatV1.15B25,2013-04-26 14:09:00,
2013-04-26 10:14:00,54.1,36.9,30.47,WNW,287,2.0,3.0,52,0.00,,,0.00,710,WeatherCatV1.15B25,2013-04-26 14:14:00,
2013-04-26 10:19:00,54.4,37.6,30.47,NE,47,6.0,6.0,53,0.00,,,0.00,724,WeatherCatV1.15B25,2013-04-26 14:19:00,
2013-04-26 10:24:00,54.2,36.0,30.47,North,2,1.0,3.0,50,0.00,,,0.00,737,WeatherCatV1.15B25,2013-04-26 14:24:00,
2013-04-26 10:29:00,54.5,37.7,30.47,SE,124,5.0,8.0,53,0.00,,,0.00,752,WeatherCatV1.15B25,2013-04-26 14:29:00,
2013-04-26 10:34:00,54.5,36.7,30.47,East,90,3.0,3.0,51,0.00,,,0.00,765,WeatherCatV1.15B25,2013-04-26 14:34:00,
2013-04-26 10:39:00,55.0,38.2,30.47,NNE,28,3.0,7.0,53,0.00,,,0.00,779,WeatherCatV1.15B25,2013-04-26 14:39:00,
2013-04-26 10:44:00,55.7,38.8,30.47,ENE,62,3.0,4.0,53,0.00,,,0.00,789,WeatherCatV1.15B25,2013-04-26 14:44:00,
2013-04-26 10:50:00,56.3,39.9,30.47,NNE,17,3.0,5.0,54,0.00,,,0.00,803,WeatherCatV1.15B25,2013-04-26 14:50:00,
2013-04-26 10:55:00,56.4,37.5,30.46,ENE,71,2.0,7.0,49,0.00,,,0.00,814,WeatherCatV1.15B25,2013-04-26 14:55:00,
2013-04-26 11:00:00,56.4,38.5,30.46,NE,56,1.0,5.0,51,0.00,,,0.00,824,WeatherCatV1.15B25,2013-04-26 15:00:00,
2013-04-26 11:05:00,56.3,36.9,30.46,ENE,72,0.0,5.0,48,0.00,,,0.00,835,WeatherCatV1.15B25,2013-04-26 15:05:00,
2013-04-26 11:10:00,56.6,39.7,30.46,NNE,27,5.0,6.0,53,0.00,,,0.00,844,WeatherCatV1.15B25,2013-04-26 15:10:00,
2013-04-26 11:15:00,56.5,37.6,30.46,East,91,0.0,3.0,49,0.00,,,0.00,853,WeatherCatV1.15B25,2013-04-26 15:15:00,
2013-04-26 11:20:00,56.6,37.7,30.46,East,96,5.0,8.0,49,0.00,,,0.00,863,WeatherCatV1.15B25,2013-04-26 15:20:00,
2013-04-26 11:25:00,56.8,37.8,30.46,East,90,3.0,4.0,49,0.00,,,0.00,872,WeatherCatV1.15B25,2013-04-26 15:25:00,
2013-04-26 11:30:00,57.3,37.8,30.46,ENE,58,2.0,6.0,48,0.00,,,0.00,879,WeatherCatV1.15B25,2013-04-26 15:30:00,
2013-04-26 11:35:00,57.4,38.9,30.46,NE,41,3.0,9.0,50,0.00,,,0.00,895,WeatherCatV1.15B25,2013-04-26 15:35:00,
2013-04-26 11:40:00,57.2,35.5,30.45,SE,132,1.0,3.0,44,0.00,,,0.00,893,WeatherCatV1.15B25,2013-04-26 15:40:00,
2013-04-26 11:45:00,57.0,37.0,30.46,ESE,105,2.0,8.0,47,0.00,,,0.00,919,WeatherCatV1.15B25,2013-04-26 15:45:00,
2013-04-26 11:50:00,57.0,36.4,30.45,SE,137,2.0,2.0,46,0.00,,,0.00,905,WeatherCatV1.15B25,2013-04-26 15:50:00,
2013-04-26 11:55:00,57.3,37.2,30.45,ESE,104,7.0,7.0,47,0.00,,,0.00,919,WeatherCatV1.15B25,2013-04-26 15:55:00,
2013-04-26 12:00:00,57.8,36.6,30.45,ESE,108,5.0,5.0,45,0.00,,,0.00,905,WeatherCatV1.15B25,2013-04-26 16:00:00,
2013-04-26 12:05:00,57.7,38.1,30.45,SE,140,0.0,2.0,48,0.00,,,0.00,940,WeatherCatV1.15B25,2013-04-26 16:05:00,
2013-04-26 12:10:00,58.0,36.2,30.44,ESE,119,8.0,9.0,44,0.00,,,0.00,942,WeatherCatV1.15B25,2013-04-26 16:10:00,
2013-04-26 12:15:00,58.4,37.1,30.44,ESE,109,3.0,8.0,45,0.00,,,0.00,944,WeatherCatV1.15B25,2013-04-26 16:15:00,
2013-04-26 12:20:00,58.2,35.8,30.44,ESE,113,1.0,7.0,43,0.00,,,0.00,953,WeatherCatV1.15B25,2013-04-26 16:20:00,
2013-04-26 12:25:00,58.6,36.8,30.43,SW,228,3.0,5.0,44,0.00,,,0.00,981,WeatherCatV1.15B25,2013-04-26 16:25:00,
2013-04-26 12:30:00,59.0,36.5,30.43,SSE,163,2.0,5.0,43,0.00,,,0.00,990,WeatherCatV1.15B25,2013-04-26 16:30:00,
2013-04-26 12:35:00,59.1,37.8,30.43,SE,127,3.0,5.0,45,0.00,,,0.00,954,WeatherCatV1.15B25,2013-04-26 16:35:00,
2013-04-26 12:40:00,59.0,36.5,30.43,SSW,198,1.0,2.0,43,0.00,,,0.00,956,WeatherCatV1.15B25,2013-04-26 16:40:00,
2013-04-26 12:42:00,59.3,36.8,30.43,WNW,302,2.0,3.0,43,0.00,,,0.00,969,WeatherCatV1.15B25,2013-04-26 16:42:00,
2013-04-26 12:47:00,60.0,37.4,30.43,WNW,292,2.0,4.0,43,0.00,,,0.00,965,WeatherCatV1.15B25,2013-04-26 16:47:00,
2013-04-26 12:52:00,60.7,39.2,30.43,SE,130,4.0,4.0,45,0.00,,,0.00,972,WeatherCatV1.15B25,2013-04-26 16:52:00,
2013-04-26 12:57:00,60.7,36.2,30.42,ESE,113,6.0,8.0,40,0.00,,,0.00,981,WeatherCatV1.15B25,2013-04-26 16:57:00,
2013-04-26 13:02:00,60.0,35.6,30.42,SSE,164,5.0,5.0,40,0.00,,,0.00,962,WeatherCatV1.15B25,2013-04-26 17:02:00,
2013-04-26 13:07:00,60.0,36.8,30.42,East,87,8.0,9.0,42,0.00,,,0.00,998,WeatherCatV1.15B25,2013-04-26 17:07:00,
2013-04-26 13:12:00,60.0,36.2,30.42,East,92,7.0,9.0,41,0.00,,,0.00,983,WeatherCatV1.15B25,2013-04-26 17:12:00,
2013-04-26 13:17:00,60.0,35.0,30.42,WNW,290,1.0,3.0,39,0.00,,,0.00,977,WeatherCatV1.15B25,2013-04-26 17:17:00,
2013-04-26 13:22:00,60.7,36.9,30.42,NE,34,0.0,2.0,41,0.00,,,0.00,965,WeatherCatV1.15B25,2013-04-26 17:22:00,
2013-04-26 13:27:00,61.1,36.0,30.42,SE,135,3.0,4.0,39,0.00,,,0.00,912,WeatherCatV1.15B25,2013-04-26 17:27:00,
2013-04-26 13:32:00,61.1,36.0,30.42,ESE,123,4.0,5.0,39,0.00,,,0.00,761,WeatherCatV1.15B25,2013-04-26 17:32:00,
2013-04-26 13:37:00,61.7,37.1,30.42,East,91,3.0,7.0,40,0.00,,,0.00,990,WeatherCatV1.15B25,2013-04-26 17:37:00,
2013-04-26 13:42:00,61.8,39.1,30.42,SE,138,3.0,7.0,43,0.00,,,0.00,93,WeatherCatV1.15B25,2013-04-26 17:42:00,
2013-04-26 13:47:00,61.2,37.9,30.41,ESE,107,1.0,3.0,42,0.00,,,0.00,689,WeatherCatV1.15B25,2013-04-26 17:47:00,
2013-04-26 13:52:00,61.3,39.8,30.41,SW,223,1.0,7.0,45,0.00,,,0.00,93,WeatherCatV1.15B25,2013-04-26 17:52:00,
2013-04-26 13:57:00,61.5,37.6,30.41,SE,132,2.0,5.0,41,0.00,,,0.00,492,WeatherCatV1.15B25,2013-04-26 17:57:00,
2013-04-26 14:02:00,61.6,37.7,30.41,ESE,102,3.0,7.0,41,0.00,,,0.00,944,WeatherCatV1.15B25,2013-04-26 18:02:00,
2013-04-26 14:07:00,61.5,35.7,30.40,ESE,116,5.0,7.0,38,0.00,,,0.00,916,WeatherCatV1.15B25,2013-04-26 18:07:00,
2013-04-26 14:12:00,61.3,36.1,30.40,SE,136,6.0,9.0,39,0.00,,,0.00,394,WeatherCatV1.15B25,2013-04-26 18:12:00,
2013-04-26 14:18:00,61.4,39.9,30.40,SE,130,3.0,4.0,45,0.00,,,0.00,796,WeatherCatV1.15B25,2013-04-26 18:18:00,
2013-04-26 14:23:00,62.0,37.4,30.40,East,94,5.0,8.0,40,0.00,,,0.00,475,WeatherCatV1.15B25,2013-04-26 18:23:00,
2013-04-26 14:28:00,62.1,36.2,30.40,ESE,121,3.0,6.0,38,0.00,,,0.00,914,WeatherCatV1.15B25,2013-04-26 18:28:00,
2013-04-26 14:33:00,62.7,36.0,30.40,ESE,117,2.0,7.0,37,0.00,,,0.00,90,WeatherCatV1.15B25,2013-04-26 18:33:00,
2013-04-26 14:38:00,63.5,37.4,30.40,SE,133,4.0,4.0,38,0.00,,,0.00,898,WeatherCatV1.15B25,2013-04-26 18:38:00,
2013-04-26 14:43:00,63.6,38.2,30.39,ESE,109,3.0,8.0,39,0.00,,,0.00,898,WeatherCatV1.15B25,2013-04-26 18:43:00,
2013-04-26 14:48:00,63.1,37.1,30.39,WSW,253,2.0,5.0,38,0.00,,,0.00,861,WeatherCatV1.15B25,2013-04-26 18:48:00,
2013-04-26 14:53:00,63.4,35.3,30.39,ESE,115,4.0,7.0,35,0.00,,,0.00,879,WeatherCatV1.15B25,2013-04-26 18:53:00,
2013-04-26 14:58:00,62.9,35.5,30.39,NNE,17,1.0,4.0,36,0.00,,,0.00,872,WeatherCatV1.15B25,2013-04-26 18:58:00,
2013-04-26 15:03:00,63.0,35.6,30.39,East,100,3.0,5.0,36,0.00,,,0.00,861,WeatherCatV1.15B25,2013-04-26 19:03:00,
2013-04-26 15:08:00,63.1,35.0,30.39,East,90,3.0,6.0,35,0.00,,,0.00,853,WeatherCatV1.15B25,2013-04-26 19:08:00,
2013-04-26 15:13:00,63.6,37.5,30.39,ESE,118,3.0,5.0,38,0.00,,,0.00,821,WeatherCatV1.15B25,2013-04-26 19:13:00,
2013-04-26 15:18:00,63.9,35.0,30.38,ESE,118,4.0,7.0,34,0.00,,,0.00,842,WeatherCatV1.15B25,2013-04-26 19:18:00,
2013-04-26 15:23:00,63.6,35.4,30.39,ESE,115,2.0,3.0,35,0.00,,,0.00,830,WeatherCatV1.15B25,2013-04-26 19:23:00,
2013-04-26 15:28:00,63.6,34.7,30.39,ESE,105,3.0,7.0,34,0.00,,,0.00,812,WeatherCatV1.15B25,2013-04-26 19:28:00,
2013-04-26 15:33:00,63.7,36.9,30.38,SSE,152,2.0,2.0,37,0.00,,,0.00,800,WeatherCatV1.15B25,2013-04-26 19:33:00,
2013-04-26 15:38:00,64.3,36.8,30.38,NNE,21,1.0,3.0,36,0.00,,,0.00,796,WeatherCatV1.15B25,2013-04-26 19:38:00,
2013-04-26 15:43:00,64.9,35.9,30.37,WSW,241,5.0,6.0,34,0.00,,,0.00,788,WeatherCatV1.15B25,2013-04-26 19:43:00,
2013-04-26 15:48:00,66.0,33.7,30.37,NE,34,2.0,4.0,30,0.00,,,0.00,687,WeatherCatV1.15B25,2013-04-26 19:48:00,
2013-04-26 15:53:00,66.2,35.5,30.37,West,279,3.0,4.0,32,0.00,,,0.00,744,WeatherCatV1.15B25,2013-04-26 19:53:00,
2013-04-26 15:58:00,66.1,33.8,30.36,ESE,117,3.0,4.0,30,0.00,,,0.00,694,WeatherCatV1.15B25,2013-04-26 19:58:00,
2013-04-26 16:02:00,65.9,35.2,30.37,ESE,102,0.0,2.0,32,0.00,,,0.00,745,WeatherCatV1.15B25,2013-04-26 20:02:00,
2013-04-26 16:07:00,66.6,32.5,30.37,West,269,3.0,3.0,28,0.00,,,0.00,731,WeatherCatV1.15B25,2013-04-26 20:07:00,
2013-04-26 16:12:00,67.3,32.2,30.37,SW,231,3.0,5.0,27,0.00,,,0.00,710,WeatherCatV1.15B25,2013-04-26 20:12:00,
2013-04-26 16:17:00,67.2,32.1,30.37,NE,46,0.0,4.0,27,0.00,,,0.00,689,WeatherCatV1.15B25,2013-04-26 20:17:00,
2013-04-26 16:22:00,67.5,35.0,30.37,West,281,2.0,4.0,30,0.00,,,0.00,682,WeatherCatV1.15B25,2013-04-26 20:22:00,
2013-04-26 16:27:00,68.0,33.7,30.36,WNW,296,0.0,3.0,28,0.00,,,0.00,659,WeatherCatV1.15B25,2013-04-26 20:27:00,
2013-04-26 16:32:00,68.4,33.1,30.36,SE,127,1.0,2.0,27,0.00,,,0.00,645,WeatherCatV1.15B25,2013-04-26 20:32:00,
2013-04-26 16:37:00,67.9,31.7,30.36,ENE,58,3.0,6.0,26,0.00,,,0.00,636,WeatherCatV1.15B25,2013-04-26 20:37:00,
2013-04-26 16:42:00,67.1,37.0,30.35,NE,55,4.0,7.0,33,0.00,,,0.00,610,WeatherCatV1.15B25,2013-04-26 20:42:00,
2013-04-26 16:47:00,66.3,39.9,30.35,East,94,7.0,7.0,38,0.00,,,0.00,596,WeatherCatV1.15B25,2013-04-26 20:47:00,
2013-04-26 16:52:00,65.2,36.9,30.35,East,90,5.0,11.0,35,0.00,,,0.00,587,WeatherCatV1.15B25,2013-04-26 20:52:00,
2013-04-26 16:57:00,64.5,38.3,30.35,ESE,106,2.0,7.0,38,0.00,,,0.00,540,WeatherCatV1.15B25,2013-04-26 20:57:00,
2013-04-26 17:02:00,64.4,36.9,30.35,East,98,5.0,8.0,36,0.00,,,0.00,515,WeatherCatV1.15B25,2013-04-26 21:02:00,
2013-04-26 17:07:00,64.5,38.3,30.34,East,95,2.0,6.0,38,0.00,,,0.00,494,WeatherCatV1.15B25,2013-04-26 21:07:00,
2013-04-26 17:12:00,64.5,36.2,30.34,ESE,122,3.0,6.0,35,0.00,,,0.00,534,WeatherCatV1.15B25,2013-04-26 21:12:00,
2013-04-26 17:17:00,64.4,35.4,30.34,East,91,3.0,6.0,34,0.00,,,0.00,466,WeatherCatV1.15B25,2013-04-26 21:17:00,
2013-04-26 17:22:00,64.2,35.2,30.34,ENE,77,5.0,9.0,34,0.00,,,0.00,480,WeatherCatV1.15B25,2013-04-26 21:22:00,
2013-04-26 17:27:00,63.7,38.3,30.34,ENE,63,5.0,7.0,39,0.00,,,0.00,330,WeatherCatV1.15B25,2013-04-26 21:27:00,
2013-04-26 17:28:00,63.6,36.8,30.34,ESE,111,6.0,8.0,37,0.00,,,0.00,308,WeatherCatV1.15B25,2013-04-26 21:28:00,
2013-04-26 17:34:00,63.1,37.7,30.34,ESE,112,5.0,5.0,39,0.00,,,0.00,343,WeatherCatV1.15B25,2013-04-26 21:34:00,
2013-04-26 17:39:00,62.6,37.9,30.34,ESE,104,6.0,9.0,40,0.00,,,0.00,360,WeatherCatV1.15B25,2013-04-26 21:39:00,
2013-04-26 17:44:00,62.2,36.9,30.34,SE,142,3.0,7.0,39,0.00,,,0.00,148,WeatherCatV1.15B25,2013-04-26 21:44:00,
2013-04-26 17:47:00,61.9,36.7,30.34,East,99,6.0,7.0,39,0.00,,,0.00,202,WeatherCatV1.15B25,2013-04-26 21:47:00,
2013-04-26 17:48:00,61.9,36.7,30.34,ESE,117,4.0,9.0,39,0.00,,,0.00,172,WeatherCatV1.15B25,2013-04-26 21:48:00,
2013-04-26 17:50:00,61.8,36.6,30.34,ESE,117,4.0,9.0,39,0.00,,,0.00,183,WeatherCatV1.15B25,2013-04-26 21:50:00,
2013-04-26 17:55:00,61.7,37.1,30.34,ENE,74,5.0,7.0,40,0.00,,,0.00,139,WeatherCatV1.15B25,2013-04-26 21:55:00,
2013-04-26 18:00:00,61.7,37.1,30.34,ESE,115,4.0,7.0,40,0.00,,,0.00,153,WeatherCatV1.15B25,2013-04-26 22:00:00,
2013-04-26 18:05:00,61.7,37.1,30.35,ESE,119,7.0,9.0,40,0.00,,,0.00,221,WeatherCatV1.15B25,2013-04-26 22:05:00,
2013-04-26 18:10:00,61.6,37.7,30.35,ESE,104,6.0,6.0,41,0.00,,,0.00,130,WeatherCatV1.15B25,2013-04-26 22:10:00,
2013-04-26 18:15:00,61.7,37.1,30.35,ESE,121,3.0,5.0,40,0.00,,,0.00,120,WeatherCatV1.15B25,2013-04-26 22:15:00,
2013-04-26 18:20:00,61.6,37.0,30.35,East,91,6.0,7.0,40,0.00,,,0.00,186,WeatherCatV1.15B25,2013-04-26 22:20:00,
2013-04-26 18:22:00,61.5,37.0,30.35,SE,139,1.0,1.0,40,0.00,,,0.00,174,WeatherCatV1.15B25,2013-04-26 22:22:00,
2013-04-26 18:27:00,61.4,37.5,30.35,ESE,102,7.0,7.0,41,0.00,,,0.00,69,WeatherCatV1.15B25,2013-04-26 22:27:00,
2013-04-26 18:34:00,61.1,36.6,30.35,ESE,110,5.0,5.0,40,0.00,,,0.00,77,WeatherCatV1.15B25,2013-04-26 22:34:00,
2013-04-26 18:39:00,60.9,37.0,30.35,ESE,123,1.0,3.0,41,0.00,,,0.00,54,WeatherCatV1.15B25,2013-04-26 22:39:00,
2013-04-26 18:44:00,60.8,36.3,30.35,SSE,157,6.0,7.0,40,0.00,,,0.00,62,WeatherCatV1.15B25,2013-04-26 22:44:00,
2013-04-26 18:49:00,60.5,37.3,30.36,SSW,195,2.0,5.0,42,0.00,,,0.00,65,WeatherCatV1.15B25,2013-04-26 22:49:00,
2013-04-26 18:54:00,60.3,37.7,30.36,ESE,106,3.0,6.0,43,0.00,,,0.00,67,WeatherCatV1.15B25,2013-04-26 22:54:00,
2013-04-26 18:59:00,60.1,36.9,30.35,ESE,117,3.0,5.0,42,0.00,,,0.00,53,WeatherCatV1.15B25,2013-04-26 22:59:00,
2013-04-26 19:04:00,59.9,36.8,30.36,ESE,113,1.0,5.0,42,0.00,,,0.00,47,WeatherCatV1.15B25,2013-04-26 23:04:00,
2013-04-26 19:09:00,59.8,37.3,30.36,ESE,103,6.0,9.0,43,0.00,,,0.00,42,WeatherCatV1.15B25,2013-04-26 23:09:00,
2013-04-26 19:14:00,59.7,37.2,30.36,ESE,120,3.0,5.0,43,0.00,,,0.00,46,WeatherCatV1.15B25,2013-04-26 23:14:00,
2013-04-26 19:20:00,59.5,37.6,30.36,ESE,104,1.0,5.0,44,0.00,,,0.00,40,WeatherCatV1.15B25,2013-04-26 23:20:00,
2013-04-26 19:25:00,59.3,36.8,30.37,East,88,4.0,5.0,43,0.00,,,0.00,33,WeatherCatV1.15B25,2013-04-26 23:25:00,
2013-04-26 19:30:00,59.1,36.6,30.37,East,98,1.0,1.0,43,0.00,,,0.00,26,WeatherCatV1.15B25,2013-04-26 23:30:00,
2013-04-26 19:35:00,58.9,36.4,30.37,SSE,166,3.0,4.0,43,0.00,,,0.00,21,WeatherCatV1.15B25,2013-04-26 23:35:00,
2013-04-26 19:40:00,58.8,36.9,30.37,East,98,2.0,2.0,44,0.00,,,0.00,18,WeatherCatV1.15B25,2013-04-26 23:40:00,
2013-04-26 19:45:00,58.6,36.2,30.37,ESE,121,0.0,2.0,43,0.00,,,0.00,12,WeatherCatV1.15B25,2013-04-26 23:45:00,
2013-04-26 19:52:00,58.4,36.0,30.37,ESE,121,0.0,1.0,43,0.00,,,0.00,7,WeatherCatV1.15B25,2013-04-26 23:52:00,
2013-04-26 20:05:00,56.8,37.3,30.38,ESE,121,1.0,2.0,48,0.00,,,0.00,0,WeatherCatV1.15B25,2013-04-27 00:05:00,
2013-04-26 20:10:00,56.1,37.7,30.38,NW,315,2.0,3.0,50,0.00,,,0.00,0,WeatherCatV1.15B25,2013-04-27 00:10:00,
2013-04-26 20:15:00,55.3,38.0,30.38,NW,313,1.0,1.0,52,0.00,,,0.00,0,WeatherCatV1.15B25,2013-04-27 00:15:00,
2013-04-26 20:20:00,54.7,37.9,30.38,NW,312,2.0,2.0,53,0.00,,,0.00,0,WeatherCatV1.15B25,2013-04-27 00:20:00,
2013-04-26 20:25:00,54.0,37.7,30.39,NW,312,1.0,2.0,54,0.00,,,0.00,0,WeatherCatV1.15B25,2013-04-27 00:25:00,
2013-04-26 20:31:00,53.4,38.1,30.38,NW,311,1.0,2.0,56,0.00,,,0.00,0,WeatherCatV1.15B25,2013-04-27 00:31:00,
2013-04-26 20:36:00,53.0,38.2,30.39,NW,311,1.0,1.0,57,0.00,,,0.00,0,WeatherCatV1.15B25,2013-04-27 00:36:00,
2013-04-26 20:41:00,52.6,38.2,30.39,NW,311,1.0,2.0,58,0.00,,,0.00,0,WeatherCatV1.15B25,2013-04-27 00:41:00,
2013-04-26 20:46:00,52.3,38.4,30.39,NW,316,0.0,2.0,59,0.00,,,0.00,0,WeatherCatV1.15B25,2013-04-27 00:46:00,
2013-04-26 20:51:00,51.7,38.3,30.39,NNW,330,0.0,1.0,60,0.00,,,0.00,0,WeatherCatV1.15B25,2013-04-27 00:51:00,
2013-04-26 20:56:00,51.2,38.2,30.39,WNW,302,1.0,3.0,61,0.00,,,0.00,0,WeatherCatV1.15B25,2013-04-27 00:56:00,
2013-04-26 21:01:00,50.8,38.3,30.39,WNW,298,3.0,3.0,62,0.00,,,0.00,0,WeatherCatV1.15B25,2013-04-27 01:01:00,
2013-04-26 21:06:00,50.6,37.7,30.39,NW,307,2.0,3.0,61,0.00,,,0.00,0,WeatherCatV1.15B25,2013-04-27 01:06:00,
2013-04-26 21:11:00,50.2,37.7,30.39,NW,307,1.0,2.0,62,0.00,,,0.00,0,WeatherCatV1.15B25,2013-04-27 01:11:00,
2013-04-26 21:16:00,49.8,37.7,30.40,NW,307,1.0,2.0,63,0.00,,,0.00,0,WeatherCatV1.15B25,2013-04-27 01:16:00,
2013-04-26 21:21:00,49.6,37.5,30.40,NW,307,1.0,1.0,63,0.00,,,0.00,0,WeatherCatV1.15B25,2013-04-27 01:21:00,
2013-04-26 21:26:00,49.5,37.4,30.40,NW,309,2.0,2.0,63,0.00,,,0.00,0,WeatherCatV1.15B25,2013-04-27 01:26:00,
2013-04-26 21:31:00,49.3,37.2,30.40,NW,305,1.0,2.0,63,0.00,,,0.00,0,WeatherCatV1.15B25,2013-04-27 01:31:00,
2013-04-26 21:36:00,49.0,37.4,30.40,NW,305,0.0,0.0,64,0.00,,,0.00,0,WeatherCatV1.15B25,2013-04-27 01:36:00,
2013-04-26 21:41:00,48.7,37.5,30.41,NW,305,0.0,1.0,65,0.00,,,0.00,0,WeatherCatV1.15B25,2013-04-27 01:41:00,
2013-04-26 21:46:00,48.3,37.1,30.41,NW,305,0.0,1.0,65,0.00,,,0.00,0,WeatherCatV1.15B25,2013-04-27 01:46:00,
2013-04-26 21:51:00,47.9,37.1,30.41,NW,305,1.0,1.0,66,0.00,,,0.00,0,WeatherCatV1.15B25,2013-04-27 01:51:00,
2013-04-26 21:56:00,47.5,37.1,30.41,NW,305,0.0,1.0,67,0.00,,,0.00,0,WeatherCatV1.15B25,2013-04-27 01:56:00,
2013-04-26 22:01:00,47.2,36.8,30.41,NW,305,0.0,0.0,67,0.00,,,0.00,0,WeatherCatV1.15B25,2013-04-27 02:01:00,
2013-04-26 22:06:00,47.0,36.6,30.41,NW,305,1.0,1.0,67,0.00,,,0.00,0,WeatherCatV1.15B25,2013-04-27 02:06:00,
2013-04-26 22:11:00,47.1,36.7,30.41,NW,305,0.0,0.0,67,0.00,,,0.00,0,WeatherCatV1.15B25,2013-04-27 02:11:00,
2013-04-26 22:16:00,46.9,36.9,30.41,NW,305,0.0,0.0,68,0.00,,,0.00,0,WeatherCatV1.15B25,2013-04-27 02:16:00,
2013-04-26 22:21:00,46.5,36.5,30.40,NW,305,1.0,2.0,68,0.00,,,0.00,0,WeatherCatV1.15B25,2013-04-27 02:21:00,
2013-04-26 22:26:00,46.0,36.8,30.40,NW,305,2.0,2.0,70,0.00,,,0.00,0,WeatherCatV1.15B25,2013-04-27 02:26:00,
2013-04-26 22:31:00,45.6,36.4,30.40,NW,305,0.0,0.0,70,0.00,,,0.00,0,WeatherCatV1.15B25,2013-04-27 02:31:00,
2013-04-26 22:36:00,45.5,36.3,30.40,NW,305,0.0,0.0,70,0.00,,,0.00,0,WeatherCatV1.15B25,2013-04-27 02:36:00,
2013-04-26 22:41:00,45.2,36.4,30.41,NW,305,0.0,0.0,71,0.00,,,0.00,0,WeatherCatV1.15B25,2013-04-27 02:41:00,
2013-04-26 22:46:00,45.0,36.9,30.41,NW,305,0.0,0.0,73,0.00,,,0.00,0,WeatherCatV1.15B25,2013-04-27 02:46:00,
2013-04-26 22:51:00,44.6,36.5,30.40,NW,305,1.0,1.0,73,0.00,,,0.00,0,WeatherCatV1.15B25,2013-04-27 02:51:00,
2013-04-26 22:56:00,44.2,36.4,30.40,NW,305,1.0,1.0,74,0.00,,,0.00,0,WeatherCatV1.15B25,2013-04-27 02:56:00,
2013-04-26 23:01:00,43.9,36.2,30.40,NW,305,1.0,1.0,74,0.00,,,0.00,0,WeatherCatV1.15B25,2013-04-27 03:01:00,
2013-04-26 23:06:00,43.8,36.1,30.40,NNW,344,1.0,2.0,74,0.00,,,0.00,0,WeatherCatV1.15B25,2013-04-27 03:06:00,
2013-04-26 23:11:00,43.3,36.3,30.40,NNW,348,0.0,1.0,76,0.00,,,0.00,0,WeatherCatV1.15B25,2013-04-27 03:11:00,
2013-04-26 23:16:00,43.0,36.0,30.40,NNW,348,0.0,0.0,76,0.00,,,0.00,0,WeatherCatV1.15B25,2013-04-27 03:16:00,
2013-04-26 23:19:00,42.8,36.1,30.41,NNW,348,0.0,0.0,77,0.00,,,0.00,0,WeatherCatV1.15B25,2013-04-27 03:19:00,
2013-04-26 23:24:00,42.5,35.8,30.40,NNW,348,0.0,0.0,77,0.00,,,0.00,0,WeatherCatV1.15B25,2013-04-27 03:24:00,
2013-04-26 23:29:00,42.4,35.7,30.40,NNW,348,0.0,0.0,77,0.00,,,0.00,0,WeatherCatV1.15B25,2013-04-27 03:29:00,
2013-04-26 23:34:00,42.2,35.5,30.40,NNW,348,0.0,0.0,77,0.00,,,0.00,0,WeatherCatV1.15B25,2013-04-27 03:34:00,
2013-04-26 23:39:00,41.9,35.5,30.40,NNW,348,0.0,2.0,78,0.00,,,0.00,0,WeatherCatV1.15B25,2013-04-27 03:39:00,
2013-04-26 23:44:00,41.6,35.3,30.40,NNW,348,0.0,1.0,78,0.00,,,0.00,0,WeatherCatV1.15B25,2013-04-27 03:44:00,
2013-04-26 23:49:00,41.3,35.3,30.40,NNW,348,0.0,1.0,79,0.00,,,0.00,0,WeatherCatV1.15B25,2013-04-27 03:49:00,
2013-04-26 23:54:00,41.1,35.4,30.41,NNW,337,1.0,2.0,80,0.00,,,0.00,0,WeatherCatV1.15B25,2013-04-27 03:54:00,
2013-04-26 23:58:00,41.0,35.3,30.41,NNW,337,0.0,0.0,80,0.00,,,0.00,0,WeatherCatV1.15B25,2013-04-27 03:58:00,